Strona główna
METAR-TAF:

METAR-TAF

Lotnisko :

Augusta, Maine, Stany Zjednoczone

Szerokość geograficzna: 44-19-14N, Długość geograficzna: 069-47-50W, wysokość: 107 m

Aktualna obserwacja pogody

Raport powstał 39 minut temu, godzina 00:53 UTC
Wiatr 5 kt z kierunków zmiennych
Temperatura -8°C
Wilgotność 41%
Ciśnienie 1023 hPa
Widzialność: 16.1 km
bezchmurnie

METAR: KAUG 210053Z AUTO VRB05KT 10SM CLR M08/M19 A3021 RMK AO2 SLP236 T10831189

czas: 20:32 (01:32 UTC)

Prognoza

Raport powstał 2 godziny i 12 minut temu, godzina 23:20 UTC
Prognoza ważna od 21 godzina 00 UTC do 21 godzina 24 UTC
Wiatr 5 kt od północny zachód
Widzialność: 10 km
bezchmurnie

TAF: KAUG 202320Z 2100/2124 31005KT P6SM SKC

Obserwacja i prognoza pogody dla ponad 4000 lotnisk (raport METAR i TAF).

Dostępne stacje oznaczono żółtymi i czerwonymi punktami na mapie.

Najedź kursorem aby zobaczyć nazwę stacji.

Kliknij aby zobaczyć obserwacje i prognozy pogody.

Aby zmienić mapę: kliknij na zielony przycisk z czarnym krzyżykiem, aby powiększyć; na zielony przycisk z myślnikiem, aby pomniejszyć; na zielone strzałki, aby przejść do map sąsiednich.


METAR-TAF: